New York City, NY - LGA

Start Spreading the News

The New York City, NY base is actually a co-domicile splitting coverage between New York's LaGuardia International Airport (LGA) and the John F. Kennedy International Airport (JFK) depending on fleet type and the type of flying. The LGA airport caters to domestic flights with a few Canadian destinations, while JFK is the long haul international hub with domestic connections.

LGA Based Pilots: 7   Miles to LGA: 58258
Flights from LGA: 94   Total Hours: 301.69
Routes using LGA: 887   From LGA: 145.67
Total Miles: 108916   Hours To LGA: 156.02
Miles from LGA: 50658   LGA Charts: Click Here
VATSIM METAR: KLGA 012051Z 21007KT 10SM FEW065 BKN250 09/M04 A3013 RMK AO2 SLP202 T00941044 55005
 
         
View More: Click Here
   

 

Earn Your Wings

Interested in joining our LGA hub? Hover for more!

Your journey starts here. Your journey starts now. A whole new experience is at your fingertips.

Like what you see and ready to join the team?

A rewarding and memorable virtual airline experience awaits!